Greensburg, Missouri
Current Conditions -  °F | °C
As of 5:55 PM on Friday 28 Nov 2014 (Local Time) from KIRK Reporting Station
Clear Clear  
Wind Chill: 32°   Ceiling: Unl
Heat Index: 38°   Visibility: 10mi
Dew Point: 32°   Wind: 8mph
Humidity: 79%   Direction: 160°SSE
Pressure: 29.81"   Gusts: NA
Location:  40.2599°N, 92.2634°W
Report Text: KIRK 282355Z AUTO 16007KT 10SM CLR 03/00 A2981 RMK AO2 SLP107 T00330000 10106 20028 56010
Loading
Personal Weather Stations






























Interactive Weather Map New forecast layout! Learn more

10-Day Weather Forecast

Advertisements
Track Severe Weather on mobile